Time;durP1;ratioP1;P1;durP2;ratioP2;P2;SDS_P1;SDS_P2;PMS_P1;PMS_P2;Temp;Humidity;BMP_temperature;BMP_pressure;BME280_temperature;BME280_humidity;BME280_pressure;Samples;Min_cycle;Max_cycle;Signal;HPM_P1;HPM_P2
2022/01/15 00:00:12;;;;;;;;;;;;;;;;;;2115411;28;19927;-46
2022/01/15 00:01:13;;;;;;;;;;;;;;;;;;2111304;28;19920;-46
2022/01/15 00:02:14;;;;;;;;;;;;;;;;;;2100868;28;19966;-47
2022/01/15 00:03:15;;;;;;;;;;;;;;;;;;2098548;28;20378;-46
2022/01/15 00:04:16;;;;;;;;;;;;;;;;;;2102826;28;19927;-46
2022/01/15 00:05:20;;;;;;;;;;;;;;;;;;2098926;28;19924;-46
2022/01/15 00:06:21;;;;;;;;;;;;;;;;;;2098778;28;19921;-46
2022/01/15 00:07:22;;;;;;;;;;;;;;;;;;2104545;28;19924;-45
2022/01/15 00:08:23;;;;;;;;;;;;;;;;;;2115334;28;20273;-46
2022/01/15 00:09:24;;;;;;;;;;;;;;;;;;2114682;28;19948;-46
2022/01/15 00:10:27;;;;;;;;;;;;;;;;;;2109220;28;20432;-46
2022/01/15 00:11:27;;;;;;;;;;;;;;;;;;2115482;28;19926;-46
2022/01/15 00:12:35;;;;;;;;;;;;;;;;;;2110800;28;19919;-46
2022/01/15 00:13:38;;;;;;;;;;;;;;;;;;2100668;28;20074;-46
2022/01/15 00:14:41;;;;;;;;;;;;;;;;;;2098579;28;20037;-47
2022/01/15 00:15:49;;;;;;;;;;;;;;;;;;2100965;28;20023;-45
2022/01/15 00:16:56;;;;;;;;;;;;;;;;;;2106727;28;19973;-45
2022/01/15 00:17:58;;;;;;;;;;;;;;;;;;2106442;28;20495;-46
2022/01/15 00:19:06;;;;;;;;;;;;;;;;;;2106066;28;20030;-47
2022/01/15 00:20:07;;;;;;;;;;;;;;;;;;2107041;28;20012;-45
2022/01/15 00:21:08;;;;;;;;;;;;;;;;;;2106938;28;20314;-46
2022/01/15 00:22:08;;;;;;;;;;;;;;;;;;2105834;28;19927;-45
2022/01/15 00:23:09;;;;;;;;;;;;;;;;;;2106893;28;19921;-45
2022/01/15 00:24:10;;;;;;;;;;;;;;;;;;2105669;28;19973;-45
2022/01/15 00:25:11;;;;;;;;;;;;;;;;;;2106655;28;19920;-46
2022/01/15 00:26:12;;;;;;;;;;;;;;;;;;2106711;28;19920;-46
2022/01/15 00:27:13;;;;;;;;;;;;;;;;;;2109203;28;19965;-46
2022/01/15 00:28:14;;;;;;;;;;;;;;;;;;2106707;28;20014;-45
2022/01/15 00:29:14;;;;;;;;;;;;;;;;;;2106398;28;19920;-46
2022/01/15 00:30:15;;;;;;;;;;;;;;;;;;2105993;28;19927;-46
2022/01/15 00:31:16;;;;;;;;;;;;;;;;;;2106813;28;20165;-46
2022/01/15 00:32:17;;;;;;;;;;;;;;;;;;2106150;28;20004;-45
2022/01/15 00:33:18;;;;;;;;;;;;;;;;;;2105124;28;19920;-45
2022/01/15 00:34:19;;;;;;;;;;;;;;;;;;2106796;28;19924;-46
2022/01/15 00:35:19;;;;;;;;;;;;;;;;;;2105577;28;20444;-45
2022/01/15 00:36:20;;;;;;;;;;;;;;;;;;2106350;28;19973;-44
2022/01/15 00:37:21;;;;;;;;;;;;;;;;;;2106806;28;20396;-46
2022/01/15 00:38:22;;;;;;;;;;;;;;;;;;2104254;28;20361;-46
2022/01/15 00:39:23;;;;;;;;;;;;;;;;;;2115103;28;19923;-47
2022/01/15 00:40:23;;;;;;;;;;;;;;;;;;2110560;28;19920;-44
2022/01/15 00:41:26;;;;;;;;;;;;;;;;;;2108317;28;19969;-47
2022/01/15 00:42:26;;;;;;;;;;;;;;;;;;2115161;28;20033;-45
2022/01/15 00:43:27;;;;;;;;;;;;;;;;;;2112996;28;19972;-46
2022/01/15 00:44:28;;;;;;;;;;;;;;;;;;2102101;28;20290;-45
2022/01/15 00:45:32;;;;;;;;;;;;;;;;;;2098453;28;19924;-45
2022/01/15 00:46:33;;;;;;;;;;;;;;;;;;2102162;28;20358;-47
2022/01/15 00:47:34;;;;;;;;;;;;;;;;;;2102233;28;19920;-46
2022/01/15 00:48:35;;;;;;;;;;;;;;;;;;2098344;28;20289;-47
2022/01/15 00:49:36;;;;;;;;;;;;;;;;;;2101079;28;20258;-46
2022/01/15 00:50:37;;;;;;;;;;;;;;;;;;2106543;28;19920;-45
2022/01/15 00:51:37;;;;;;;;;;;;;;;;;;2106587;28;19927;-45
2022/01/15 00:52:38;;;;;;;;;;;;;;;;;;2106663;28;19964;-47
2022/01/15 00:53:39;;;;;;;;;;;;;;;;;;2098319;28;19924;-46
2022/01/15 00:54:40;;;;;;;;;;;;;;;;;;2098396;28;19936;-46
2022/01/15 00:55:41;;;;;;;;;;;;;;;;;;2101570;28;19920;-45
2022/01/15 00:56:42;;;;;;;;;;;;;;;;;;2098325;28;19920;-45
2022/01/15 00:57:43;;;;;;;;;;;;;;;;;;2097733;28;19969;-47
2022/01/15 00:58:43;;;;;;;;;;;;;;;;;;2102037;28;19921;-46
2022/01/15 00:59:44;;;;;;;;;;;;;;;;;;2098199;28;19920;-45
2022/01/15 01:00:45;;;;;;;;;;;;;;;;;;2101894;28;19975;-46
2022/01/15 01:01:46;;;;;;;;;;;;;;;;;;2105155;28;19931;-45
2022/01/15 01:02:47;;;;;;;;;;;;;;;;;;2106547;28;20445;-46
2022/01/15 01:03:48;;;;;;;;;;;;;;;;;;2105483;28;19920;-46
2022/01/15 01:04:48;;;;;;;;;;;;;;;;;;2098767;28;19994;-47
2022/01/15 01:05:49;;;;;;;;;;;;;;;;;;2098225;28;19928;-45
2022/01/15 01:06:50;;;;;;;;;;;;;;;;;;2106060;28;19970;-46
2022/01/15 01:07:51;;;;;;;;;;;;;;;;;;2098324;28;19927;-45
2022/01/15 01:08:52;;;;;;;;;;;;;;;;;;2097897;28;19920;-45
2022/01/15 01:10:04;;;;;;;;;;;;;;;;;;2106906;28;20023;-46
2022/01/15 01:11:11;;;;;;;;;;;;;;;;;;2106551;28;19980;-46
2022/01/15 01:12:25;;;;;;;;;;;;;;;;;;2106165;28;19970;-46
2022/01/15 01:20:09;;;;;;;;;;;;;;;;;;2098119;28;20262;-47
2022/01/15 01:21:38;;;;;;;;;;;;;;;;;;2102864;28;20420;-45
2022/01/15 01:22:54;;;;;;;;;;;;;;;;;;2098063;28;20369;-45
2022/01/15 01:23:55;;;;;;;;;;;;;;;;;;2102042;28;20046;-48
2022/01/15 01:24:56;;;;;;;;;;;;;;;;;;2106499;28;19985;-45
2022/01/15 01:26:04;;;;;;;;;;;;;;;;;;2105423;28;19920;-45
2022/01/15 01:27:10;;;;;;;;;;;;;;;;;;2100914;28;20010;-47
2022/01/15 01:28:15;;;;;;;;;;;;;;;;;;2098233;28;19993;-45
2022/01/15 01:29:27;;;;;;;;;;;;;;;;;;2099548;28;20014;-46
2022/01/15 01:30:34;;;;;;;;;;;;;;;;;;2098136;28;19926;-45
2022/01/15 01:31:39;;;;;;;;;;;;;;;;;;2097620;28;20081;-45
2022/01/15 01:32:47;;;;;;;;;;;;;;;;;;2109285;28;20010;-45
2022/01/15 01:33:53;;;;;;;;;;;;;;;;;;2114893;28;20120;-46
2022/01/15 01:34:54;;;;;;;;;;;;;;;;;;2109650;28;20270;-49
2022/01/15 01:36:10;;;;;;;;;;;;;;;;;;2114413;28;19951;-49
2022/01/15 01:37:16;;;;;;;;;;;;;;;;;;2114428;28;19930;-52
2022/01/15 01:38:25;;;;;;;;;;;;;;;;;;2108247;28;20006;-49
2022/01/15 01:39:36;;;;;;;;;;;;;;;;;;2114950;28;20041;-53
2022/01/15 01:40:38;;;;;;;;;;;;;;;;;;2108123;28;19920;-48
2022/01/15 01:41:47;;;;;;;;;;;;;;;;;;2106234;28;20023;-48
2022/01/15 01:42:58;;;;;;;;;;;;;;;;;;2106363;28;19920;-49
2022/01/15 01:44:01;;;;;;;;;;;;;;;;;;2101815;28;20011;-51
2022/01/15 01:45:04;;;;;;;;;;;;;;;;;;2097914;28;19970;-49
2022/01/15 01:46:20;;;;;;;;;;;;;;;;;;2099385;28;20003;-51
2022/01/15 01:47:28;;;;;;;;;;;;;;;;;;2105905;28;19920;-49
2022/01/15 01:48:29;;;;;;;;;;;;;;;;;;2106463;28;20010;-52
2022/01/15 01:49:30;;;;;;;;;;;;;;;;;;2102804;28;20013;-49
2022/01/15 01:50:31;;;;;;;;;;;;;;;;;;2106334;28;20324;-49
2022/01/15 01:51:33;;;;;;;;;;;;;;;;;;2105564;28;19964;-49
2022/01/15 01:52:34;;;;;;;;;;;;;;;;;;2101713;28;20011;-51
2022/01/15 01:53:34;;;;;;;;;;;;;;;;;;2097912;28;19920;-49
2022/01/15 01:54:35;;;;;;;;;;;;;;;;;;2100573;28;19923;-49
2022/01/15 01:55:36;;;;;;;;;;;;;;;;;;2100388;28;20399;-46
2022/01/15 01:56:37;;;;;;;;;;;;;;;;;;2097906;28;19932;-45
2022/01/15 01:57:38;;;;;;;;;;;;;;;;;;2102097;28;19920;-45
2022/01/15 01:58:39;;;;;;;;;;;;;;;;;;2106051;28;19933;-45
2022/01/15 01:59:39;;;;;;;;;;;;;;;;;;2106397;28;19928;-45
2022/01/15 02:00:40;;;;;;;;;;;;;;;;;;2104021;28;19970;-44
2022/01/15 02:01:41;;;;;;;;;;;;;;;;;;2097989;28;19929;-46
2022/01/15 02:02:42;;;;;;;;;;;;;;;;;;2097653;28;19936;-44
2022/01/15 02:03:43;;;;;;;;;;;;;;;;;;2102822;28;19928;-46
2022/01/15 02:04:44;;;;;;;;;;;;;;;;;;2097915;28;20065;-45
2022/01/15 02:05:45;;;;;;;;;;;;;;;;;;2099351;28;19924;-46
2022/01/15 02:06:46;;;;;;;;;;;;;;;;;;2104457;28;19930;-46
2022/01/15 02:07:47;;;;;;;;;;;;;;;;;;2106191;28;19982;-44
2022/01/15 02:08:47;;;;;;;;;;;;;;;;;;2105295;28;19927;-45
2022/01/15 02:09:48;;;;;;;;;;;;;;;;;;2112424;28;19919;-46
2022/01/15 02:10:49;;;;;;;;;;;;;;;;;;2114803;28;19923;-46
2022/01/15 02:11:50;;;;;;;;;;;;;;;;;;2107970;28;19928;-44
2022/01/15 02:12:51;;;;;;;;;;;;;;;;;;2106058;28;19920;-49
2022/01/15 02:13:52;;;;;;;;;;;;;;;;;;2106280;28;19920;-45
2022/01/15 02:14:52;;;;;;;;;;;;;;;;;;2105357;28;19920;-45
2022/01/15 02:15:53;;;;;;;;;;;;;;;;;;2107729;28;20442;-44
2022/01/15 02:16:54;;;;;;;;;;;;;;;;;;2106849;28;19920;-45
2022/01/15 02:17:55;;;;;;;;;;;;;;;;;;2105142;28;19920;-46
2022/01/15 02:18:55;;;;;;;;;;;;;;;;;;2107556;28;19926;-44
2022/01/15 02:20:10;;;;;;;;;;;;;;;;;;2107116;28;19920;-52
2022/01/15 02:23:45;;;;;;;;;;;;;;;;;;2105007;28;20015;-48
2022/01/15 02:24:46;;;;;;;;;;;;;;;;;;2099210;28;19938;-48
2022/01/15 02:25:47;;;;;;;;;;;;;;;;;;2101914;28;19921;-49
2022/01/15 02:26:47;;;;;;;;;;;;;;;;;;2107477;28;19920;-50
2022/01/15 02:27:48;;;;;;;;;;;;;;;;;;2107626;28;19947;-52
2022/01/15 02:28:49;;;;;;;;;;;;;;;;;;2106554;28;20518;-50
2022/01/15 02:29:50;;;;;;;;;;;;;;;;;;2099583;28;19932;-49
2022/01/15 02:30:51;;;;;;;;;;;;;;;;;;2099298;28;20001;-49
2022/01/15 02:31:52;;;;;;;;;;;;;;;;;;2102839;28;19920;-50
2022/01/15 02:32:52;;;;;;;;;;;;;;;;;;2107692;28;19981;-49
2022/01/15 02:33:53;;;;;;;;;;;;;;;;;;2106856;28;19943;-50
2022/01/15 02:34:54;;;;;;;;;;;;;;;;;;2103130;28;19928;-49
2022/01/15 02:35:55;;;;;;;;;;;;;;;;;;2099341;28;19951;-51
2022/01/15 02:36:56;;;;;;;;;;;;;;;;;;2099437;28;20301;-49
2022/01/15 02:37:57;;;;;;;;;;;;;;;;;;2104902;28;19998;-50
2022/01/15 02:38:58;;;;;;;;;;;;;;;;;;2099153;28;20386;-49
2022/01/15 02:39:58;;;;;;;;;;;;;;;;;;2100649;28;19920;-48
2022/01/15 02:40:59;;;;;;;;;;;;;;;;;;2100859;28;19944;-51
2022/01/15 02:42:00;;;;;;;;;;;;;;;;;;2099242;28;19920;-52
2022/01/15 02:43:03;;;;;;;;;;;;;;;;;;2101927;28;20342;-49
2022/01/15 02:44:04;;;;;;;;;;;;;;;;;;2099271;28;19920;-50
2022/01/15 02:45:07;;;;;;;;;;;;;;;;;;2099243;28;19928;-48
2022/01/15 02:46:19;;;;;;;;;;;;;;;;;;2107106;28;19924;-48
2022/01/15 02:48:39;;;;;;;;;;;;;;;;;;2106113;28;20337;-50
2022/01/15 02:49:40;;;;;;;;;;;;;;;;;;2115909;28;19965;-48
2022/01/15 02:50:41;;;;;;;;;;;;;;;;;;2115851;28;20288;-49
2022/01/15 02:51:41;;;;;;;;;;;;;;;;;;2106527;28;19924;-49
2022/01/15 02:52:42;;;;;;;;;;;;;;;;;;2099134;28;20332;-49
2022/01/15 02:53:43;;;;;;;;;;;;;;;;;;2098721;28;19926;-51
2022/01/15 02:54:44;;;;;;;;;;;;;;;;;;2105700;28;20297;-49
2022/01/15 02:55:45;;;;;;;;;;;;;;;;;;2107260;28;19927;-49
2022/01/15 02:56:46;;;;;;;;;;;;;;;;;;2104743;28;20083;-50
2022/01/15 02:57:46;;;;;;;;;;;;;;;;;;2105905;28;20388;-51
2022/01/15 02:58:47;;;;;;;;;;;;;;;;;;2107453;28;20277;-49
2022/01/15 02:59:48;;;;;;;;;;;;;;;;;;2105702;28;19981;-46
2022/01/15 03:00:49;;;;;;;;;;;;;;;;;;2114573;28;20107;-45
2022/01/15 03:01:50;;;;;;;;;;;;;;;;;;2115924;28;19930;-45
2022/01/15 03:02:51;;;;;;;;;;;;;;;;;;2110091;28;19942;-45
2022/01/15 03:03:54;;;;;;;;;;;;;;;;;;2115744;28;19923;-46
2022/01/15 03:04:55;;;;;;;;;;;;;;;;;;2115795;28;19920;-46
2022/01/15 03:05:58;;;;;;;;;;;;;;;;;;2108684;28;19928;-46
2022/01/15 03:06:59;;;;;;;;;;;;;;;;;;2099060;28;20003;-46
2022/01/15 03:08:00;;;;;;;;;;;;;;;;;;2099700;28;20374;-46
2022/01/15 03:09:01;;;;;;;;;;;;;;;;;;2111636;28;19924;-45
2022/01/15 03:10:01;;;;;;;;;;;;;;;;;;2115839;28;19928;-46
2022/01/15 03:11:02;;;;;;;;;;;;;;;;;;2112033;28;19928;-46
2022/01/15 03:12:03;;;;;;;;;;;;;;;;;;2112590;28;20333;-46
2022/01/15 03:13:11;;;;;;;;;;;;;;;;;;2115721;28;19926;-45
2022/01/15 03:14:13;;;;;;;;;;;;;;;;;;2107837;28;19964;-47
2022/01/15 03:15:19;;;;;;;;;;;;;;;;;;2107452;28;20019;-46
2022/01/15 03:16:20;;;;;;;;;;;;;;;;;;2107255;28;19927;-45
2022/01/15 03:17:21;;;;;;;;;;;;;;;;;;2106699;28;19920;-49
2022/01/15 03:18:22;;;;;;;;;;;;;;;;;;2098882;28;19927;-45
2022/01/15 03:19:23;;;;;;;;;;;;;;;;;;2099827;28;20359;-45
2022/01/15 03:20:24;;;;;;;;;;;;;;;;;;2105730;28;19966;-47
2022/01/15 03:21:24;;;;;;;;;;;;;;;;;;2098922;28;19920;-47
2022/01/15 03:22:25;;;;;;;;;;;;;;;;;;2100712;28;20254;-46
2022/01/15 03:23:26;;;;;;;;;;;;;;;;;;2106756;28;19966;-45
2022/01/15 03:24:27;;;;;;;;;;;;;;;;;;2107404;28;20285;-46
2022/01/15 03:25:28;;;;;;;;;;;;;;;;;;2107478;28;19961;-45
2022/01/15 03:26:29;;;;;;;;;;;;;;;;;;2105957;28;19931;-45
2022/01/15 03:27:29;;;;;;;;;;;;;;;;;;2106970;28;19969;-46
2022/01/15 03:28:30;;;;;;;;;;;;;;;;;;2108170;28;19920;-45
2022/01/15 03:29:31;;;;;;;;;;;;;;;;;;2107345;28;19942;-45
2022/01/15 03:30:32;;;;;;;;;;;;;;;;;;2106830;28;19924;-45
2022/01/15 03:31:33;;;;;;;;;;;;;;;;;;2105929;28;20011;-45
2022/01/15 03:32:34;;;;;;;;;;;;;;;;;;2098885;28;19921;-45
2022/01/15 03:33:34;;;;;;;;;;;;;;;;;;2099985;28;19921;-47
2022/01/15 03:34:40;;;;;;;;;;;;;;;;;;2111725;28;19923;-45
2022/01/15 03:35:41;;;;;;;;;;;;;;;;;;2115656;28;20023;-46
2022/01/15 03:36:42;;;;;;;;;;;;;;;;;;2108981;28;19931;-45
2022/01/15 03:37:43;;;;;;;;;;;;;;;;;;2100150;28;20001;-46
2022/01/15 03:38:43;;;;;;;;;;;;;;;;;;2098850;28;19967;-46
2022/01/15 03:39:48;;;;;;;;;;;;;;;;;;2103558;28;19932;-45
2022/01/15 03:40:51;;;;;;;;;;;;;;;;;;2106620;28;19920;-45
2022/01/15 03:41:52;;;;;;;;;;;;;;;;;;2106736;28;20061;-44
2022/01/15 03:42:53;;;;;;;;;;;;;;;;;;2102543;28;19919;-46
2022/01/15 03:43:54;;;;;;;;;;;;;;;;;;2098943;28;19927;-45
2022/01/15 03:44:55;;;;;;;;;;;;;;;;;;2100367;28;20412;-46
2022/01/15 03:45:56;;;;;;;;;;;;;;;;;;2104961;28;19920;-45
2022/01/15 03:46:56;;;;;;;;;;;;;;;;;;2098967;28;19932;-51
2022/01/15 03:47:57;;;;;;;;;;;;;;;;;;2102800;28;19920;-51
2022/01/15 03:48:58;;;;;;;;;;;;;;;;;;2105713;28;20277;-49
2022/01/15 03:49:59;;;;;;;;;;;;;;;;;;2107222;28;19981;-49
2022/01/15 03:51:00;;;;;;;;;;;;;;;;;;2104623;28;19949;-50
2022/01/15 03:52:01;;;;;;;;;;;;;;;;;;2098972;28;20301;-50
2022/01/15 03:53:01;;;;;;;;;;;;;;;;;;2098748;28;19928;-49
2022/01/15 03:54:02;;;;;;;;;;;;;;;;;;2105884;28;19924;-50
2022/01/15 03:55:03;;;;;;;;;;;;;;;;;;2115519;28;20285;-51
2022/01/15 03:56:04;;;;;;;;;;;;;;;;;;2114861;28;20330;-49
2022/01/15 03:57:04;;;;;;;;;;;;;;;;;;2104289;28;19920;-49
2022/01/15 03:58:05;;;;;;;;;;;;;;;;;;2106982;28;19931;-49
2022/01/15 03:59:06;;;;;;;;;;;;;;;;;;2104901;28;19965;-50
2022/01/15 04:00:07;;;;;;;;;;;;;;;;;;2105472;28;19927;-49
2022/01/15 04:01:08;;;;;;;;;;;;;;;;;;2107090;28;19920;-49
2022/01/15 04:02:09;;;;;;;;;;;;;;;;;;2104537;28;19951;-51
2022/01/15 04:03:10;;;;;;;;;;;;;;;;;;2113721;28;19923;-52
2022/01/15 04:04:11;;;;;;;;;;;;;;;;;;2115307;28;19928;-49
2022/01/15 04:05:12;;;;;;;;;;;;;;;;;;2106515;28;19920;-50
2022/01/15 04:06:13;;;;;;;;;;;;;;;;;;2106878;28;19920;-51
2022/01/15 04:07:13;;;;;;;;;;;;;;;;;;2106975;28;19920;-50
2022/01/15 04:08:14;;;;;;;;;;;;;;;;;;2107246;28;19920;-54
2022/01/15 04:09:17;;;;;;;;;;;;;;;;;;2115326;28;19919;-50
2022/01/15 04:10:18;;;;;;;;;;;;;;;;;;2112718;28;20014;-49
2022/01/15 04:11:19;;;;;;;;;;;;;;;;;;2109204;28;20400;-51
2022/01/15 04:12:19;;;;;;;;;;;;;;;;;;2115503;28;19923;-50
2022/01/15 04:13:20;;;;;;;;;;;;;;;;;;2109588;28;19924;-49
2022/01/15 04:14:21;;;;;;;;;;;;;;;;;;2103468;28;19920;-54
2022/01/15 04:15:22;;;;;;;;;;;;;;;;;;2098570;28;19920;-50
2022/01/15 04:16:23;;;;;;;;;;;;;;;;;;2099981;28;19927;-53
2022/01/15 04:17:25;;;;;;;;;;;;;;;;;;2114371;28;19920;-53
2022/01/15 04:18:28;;;;;;;;;;;;;;;;;;2115408;28;20002;-49
2022/01/15 04:19:29;;;;;;;;;;;;;;;;;;2109004;28;19926;-51
2022/01/15 04:20:30;;;;;;;;;;;;;;;;;;2098474;28;19924;-50
2022/01/15 04:21:31;;;;;;;;;;;;;;;;;;2098575;28;19921;-53
2022/01/15 04:22:32;;;;;;;;;;;;;;;;;;2108103;28;19919;-51
2022/01/15 04:23:32;;;;;;;;;;;;;;;;;;2115267;28;20380;-49
2022/01/15 04:24:33;;;;;;;;;;;;;;;;;;2112800;28;19920;-52
2022/01/15 04:25:34;;;;;;;;;;;;;;;;;;2102226;28;19920;-49
2022/01/15 04:26:35;;;;;;;;;;;;;;;;;;2098376;28;19927;-50
2022/01/15 04:27:37;;;;;;;;;;;;;;;;;;2102349;28;20067;-49
2022/01/15 04:28:38;;;;;;;;;;;;;;;;;;2105577;28;19955;-49
2022/01/15 04:29:39;;;;;;;;;;;;;;;;;;2107040;28;20492;-52
2022/01/15 04:30:41;;;;;;;;;;;;;;;;;;2105391;28;19993;-51
2022/01/15 04:31:47;;;;;;;;;;;;;;;;;;2114930;28;20010;-52
2022/01/15 04:32:48;;;;;;;;;;;;;;;;;;2115287;28;20331;-50
2022/01/15 04:33:49;;;;;;;;;;;;;;;;;;2102428;28;19942;-48
2022/01/15 04:34:50;;;;;;;;;;;;;;;;;;2098547;28;19978;-49
2022/01/15 04:35:50;;;;;;;;;;;;;;;;;;2097989;28;20320;-50
2022/01/15 04:36:52;;;;;;;;;;;;;;;;;;2105342;28;19924;-49
2022/01/15 04:38:00;;;;;;;;;;;;;;;;;;2097957;28;20019;-50
2022/01/15 04:39:01;;;;;;;;;;;;;;;;;;2102577;28;20512;-49
2022/01/15 04:40:01;;;;;;;;;;;;;;;;;;2106231;28;19924;-47
2022/01/15 04:41:02;;;;;;;;;;;;;;;;;;2106786;28;19973;-48
2022/01/15 04:42:03;;;;;;;;;;;;;;;;;;2106606;28;19966;-48
2022/01/15 04:43:04;;;;;;;;;;;;;;;;;;2106649;28;19920;-47
2022/01/15 04:44:05;;;;;;;;;;;;;;;;;;2106795;28;20423;-51
2022/01/15 04:45:07;;;;;;;;;;;;;;;;;;2102507;28;19920;-48
2022/01/15 04:46:08;;;;;;;;;;;;;;;;;;2098292;28;20400;-49
2022/01/15 04:47:08;;;;;;;;;;;;;;;;;;2098829;28;20391;-49
2022/01/15 04:48:09;;;;;;;;;;;;;;;;;;2109628;28;19935;-50
2022/01/15 04:49:10;;;;;;;;;;;;;;;;;;2115094;28;19923;-49
2022/01/15 04:50:11;;;;;;;;;;;;;;;;;;2111577;28;19920;-49
2022/01/15 04:51:12;;;;;;;;;;;;;;;;;;2101192;28;19921;-46
2022/01/15 04:52:13;;;;;;;;;;;;;;;;;;2098416;28;19920;-45
2022/01/15 04:53:13;;;;;;;;;;;;;;;;;;2102229;28;19972;-45
2022/01/15 04:54:14;;;;;;;;;;;;;;;;;;2106136;28;19920;-45
2022/01/15 04:55:15;;;;;;;;;;;;;;;;;;2106636;28;19965;-46
2022/01/15 04:56:16;;;;;;;;;;;;;;;;;;2108570;28;19927;-45
2022/01/15 04:57:16;;;;;;;;;;;;;;;;;;2098367;28;20400;-44
2022/01/15 04:58:17;;;;;;;;;;;;;;;;;;2098277;28;19998;-45
2022/01/15 04:59:18;;;;;;;;;;;;;;;;;;2101611;28;20304;-44
2022/01/15 05:00:19;;;;;;;;;;;;;;;;;;2098313;28;19927;-46
2022/01/15 05:01:20;;;;;;;;;;;;;;;;;;2097890;28;19928;-45
2022/01/15 05:02:21;;;;;;;;;;;;;;;;;;2102081;28;20320;-46
2022/01/15 05:03:21;;;;;;;;;;;;;;;;;;2098214;28;19920;-45
2022/01/15 05:04:22;;;;;;;;;;;;;;;;;;2099300;28;20069;-44
2022/01/15 05:05:23;;;;;;;;;;;;;;;;;;2102772;28;19920;-45
2022/01/15 05:06:24;;;;;;;;;;;;;;;;;;2098321;28;19920;-44
2022/01/15 05:07:25;;;;;;;;;;;;;;;;;;2104660;28;19943;-44
2022/01/15 05:08:26;;;;;;;;;;;;;;;;;;2114643;28;19919;-44
2022/01/15 05:09:26;;;;;;;;;;;;;;;;;;2110384;28;19924;-45
2022/01/15 05:10:28;;;;;;;;;;;;;;;;;;2105577;28;20322;-44
2022/01/15 05:11:32;;;;;;;;;;;;;;;;;;2106551;28;20011;-43
2022/01/15 05:12:40;;;;;;;;;;;;;;;;;;2106177;28;20007;-43
2022/01/15 05:13:42;;;;;;;;;;;;;;;;;;2105823;28;19949;-44
2022/01/15 05:14:42;;;;;;;;;;;;;;;;;;2106647;28;19920;-44
2022/01/15 05:15:44;;;;;;;;;;;;;;;;;;2104492;28;19920;-43
2022/01/15 05:16:44;;;;;;;;;;;;;;;;;;2111631;28;20360;-44
2022/01/15 05:17:45;;;;;;;;;;;;;;;;;;2115099;28;19920;-44
2022/01/15 05:18:46;;;;;;;;;;;;;;;;;;2107983;28;20292;-45
2022/01/15 05:19:47;;;;;;;;;;;;;;;;;;2115022;28;19919;-49
2022/01/15 05:20:49;;;;;;;;;;;;;;;;;;2114924;28;19927;-48
2022/01/15 05:21:50;;;;;;;;;;;;;;;;;;2107095;28;20003;-48
2022/01/15 05:22:51;;;;;;;;;;;;;;;;;;2106609;28;20011;-49
2022/01/15 05:23:51;;;;;;;;;;;;;;;;;;2106745;28;19923;-49
2022/01/15 05:24:52;;;;;;;;;;;;;;;;;;2107112;28;19919;-49
2022/01/15 05:25:53;;;;;;;;;;;;;;;;;;2115005;28;19920;-49
2022/01/15 05:26:54;;;;;;;;;;;;;;;;;;2111064;28;19924;-48
2022/01/15 05:27:55;;;;;;;;;;;;;;;;;;2110281;28;19926;-48
2022/01/15 05:28:56;;;;;;;;;;;;;;;;;;2114838;28;19920;-49
2022/01/15 05:29:57;;;;;;;;;;;;;;;;;;2111661;28;19924;-48
2022/01/15 05:30:58;;;;;;;;;;;;;;;;;;2113615;28;20365;-49
2022/01/15 05:31:59;;;;;;;;;;;;;;;;;;2114843;28;19926;-50
2022/01/15 05:33:02;;;;;;;;;;;;;;;;;;2105904;28;19927;-47
2022/01/15 05:34:03;;;;;;;;;;;;;;;;;;2106346;28;19942;-50
2022/01/15 05:35:04;;;;;;;;;;;;;;;;;;2106587;28;20053;-50
2022/01/15 05:36:05;;;;;;;;;;;;;;;;;;2108028;28;20265;-50
2022/01/15 05:37:06;;;;;;;;;;;;;;;;;;2114715;28;19926;-48
2022/01/15 05:38:07;;;;;;;;;;;;;;;;;;2113771;28;20280;-50
2022/01/15 05:39:08;;;;;;;;;;;;;;;;;;2104547;28;19969;-49
2022/01/15 05:40:08;;;;;;;;;;;;;;;;;;2106230;28;19920;-51
2022/01/15 05:41:09;;;;;;;;;;;;;;;;;;2104264;28;20140;-49
2022/01/15 05:42:10;;;;;;;;;;;;;;;;;;2111200;28;20369;-49
2022/01/15 05:43:12;;;;;;;;;;;;;;;;;;2114850;28;19919;-52
2022/01/15 05:44:12;;;;;;;;;;;;;;;;;;2110800;28;20016;-49
2022/01/15 05:45:13;;;;;;;;;;;;;;;;;;2106078;28;19920;-50
2022/01/15 05:46:14;;;;;;;;;;;;;;;;;;2106280;28;19973;-49
2022/01/15 05:47:15;;;;;;;;;;;;;;;;;;2103839;28;19951;-52
2022/01/15 05:48:16;;;;;;;;;;;;;;;;;;2097937;28;19927;-52
2022/01/15 05:49:17;;;;;;;;;;;;;;;;;;2097473;28;19920;-48
2022/01/15 05:50:17;;;;;;;;;;;;;;;;;;2102132;28;19920;-48
2022/01/15 05:51:18;;;;;;;;;;;;;;;;;;2097942;28;19924;-49
2022/01/15 05:52:19;;;;;;;;;;;;;;;;;;2097538;28;19920;-49
2022/01/15 05:53:20;;;;;;;;;;;;;;;;;;2101731;28;19935;-49
2022/01/15 05:54:20;;;;;;;;;;;;;;;;;;2098028;28;19931;-49
2022/01/15 05:55:24;;;;;;;;;;;;;;;;;;2098865;28;20534;-52
2022/01/15 05:56:25;;;;;;;;;;;;;;;;;;2109972;28;20542;-50
2022/01/15 05:57:26;;;;;;;;;;;;;;;;;;2114737;28;19926;-49
2022/01/15 05:58:26;;;;;;;;;;;;;;;;;;2106868;28;20269;-46
2022/01/15 05:59:27;;;;;;;;;;;;;;;;;;2114608;28;20322;-46
2022/01/15 06:00:28;;;;;;;;;;;;;;;;;;2114897;28;19919;-46
2022/01/15 06:01:29;;;;;;;;;;;;;;;;;;2106218;28;19954;-47
2022/01/15 06:02:30;;;;;;;;;;;;;;;;;;2114724;28;19953;-48
2022/01/15 06:03:31;;;;;;;;;;;;;;;;;;2107525;28;19919;-44
2022/01/15 06:04:31;;;;;;;;;;;;;;;;;;2107633;28;19920;-44
2022/01/15 06:05:32;;;;;;;;;;;;;;;;;;2111135;28;19950;-45
2022/01/15 06:06:33;;;;;;;;;;;;;;;;;;2105642;28;19945;-47
2022/01/15 06:07:34;;;;;;;;;;;;;;;;;;2109889;28;19919;-46
2022/01/15 06:08:35;;;;;;;;;;;;;;;;;;2114644;28;19926;-45
2022/01/15 06:09:36;;;;;;;;;;;;;;;;;;2109358;28;19928;-46
2022/01/15 06:10:36;;;;;;;;;;;;;;;;;;2100025;28;19943;-45
2022/01/15 06:11:39;;;;;;;;;;;;;;;;;;2097900;28;20395;-46
2022/01/15 06:12:43;;;;;;;;;;;;;;;;;;2101656;28;20040;-46
2022/01/15 06:13:44;;;;;;;;;;;;;;;;;;2114509;28;20010;-45
2022/01/15 06:14:44;;;;;;;;;;;;;;;;;;2114663;28;19942;-45
2022/01/15 06:15:45;;;;;;;;;;;;;;;;;;2107463;28;20121;-48
2022/01/15 06:16:46;;;;;;;;;;;;;;;;;;2114515;28;19924;-46
2022/01/15 06:17:47;;;;;;;;;;;;;;;;;;2113501;28;19919;-46
2022/01/15 06:18:48;;;;;;;;;;;;;;;;;;2105595;28;19920;-45
2022/01/15 06:19:49;;;;;;;;;;;;;;;;;;2106083;28;19927;-45
2022/01/15 06:20:49;;;;;;;;;;;;;;;;;;2104063;28;19920;-46
2022/01/15 06:21:50;;;;;;;;;;;;;;;;;;2104620;28;19928;-45
2022/01/15 06:22:51;;;;;;;;;;;;;;;;;;2106333;28;19965;-46
2022/01/15 06:23:52;;;;;;;;;;;;;;;;;;2104792;28;20538;-45
2022/01/15 06:24:53;;;;;;;;;;;;;;;;;;2113480;28;20425;-45
2022/01/15 06:25:54;;;;;;;;;;;;;;;;;;2114735;28;19919;-47
2022/01/15 06:26:54;;;;;;;;;;;;;;;;;;2106252;28;19920;-46
2022/01/15 06:27:55;;;;;;;;;;;;;;;;;;2114731;28;19977;-46
2022/01/15 06:28:56;;;;;;;;;;;;;;;;;;2114650;28;19919;-46
2022/01/15 06:29:57;;;;;;;;;;;;;;;;;;2104960;28;19931;-46
2022/01/15 06:30:58;;;;;;;;;;;;;;;;;;2097824;28;20289;-46
2022/01/15 06:32:02;;;;;;;;;;;;;;;;;;2098857;28;19920;-44
2022/01/15 06:33:03;;;;;;;;;;;;;;;;;;2108635;28;19988;-45
2022/01/15 06:34:04;;;;;;;;;;;;;;;;;;2114696;28;19927;-45
2022/01/15 06:35:05;;;;;;;;;;;;;;;;;;2111502;28;19920;-45
2022/01/15 06:36:05;;;;;;;;;;;;;;;;;;2105830;28;19920;-45
2022/01/15 06:37:06;;;;;;;;;;;;;;;;;;2106115;28;20365;-46
2022/01/15 06:38:07;;;;;;;;;;;;;;;;;;2108419;28;19919;-46
2022/01/15 06:39:08;;;;;;;;;;;;;;;;;;2105983;28;19920;-46
2022/01/15 06:40:09;;;;;;;;;;;;;;;;;;2105918;28;19920;-45
2022/01/15 06:41:09;;;;;;;;;;;;;;;;;;2104980;28;20293;-46
2022/01/15 06:42:10;;;;;;;;;;;;;;;;;;2106030;28;19924;-46
2022/01/15 06:43:11;;;;;;;;;;;;;;;;;;2106148;28;19926;-47
2022/01/15 06:44:12;;;;;;;;;;;;;;;;;;2101154;28;19920;-46
2022/01/15 06:45:13;;;;;;;;;;;;;;;;;;2097790;28;19920;-46
2022/01/15 06:46:13;;;;;;;;;;;;;;;;;;2097183;28;19947;-46
2022/01/15 06:47:14;;;;;;;;;;;;;;;;;;2109912;28;19926;-45
2022/01/15 06:48:15;;;;;;;;;;;;;;;;;;2114437;28;19920;-46
2022/01/15 06:49:16;;;;;;;;;;;;;;;;;;2109066;28;19928;-44
2022/01/15 06:50:17;;;;;;;;;;;;;;;;;;2099825;28;20270;-45
2022/01/15 06:51:18;;;;;;;;;;;;;;;;;;2097653;28;20055;-47
2022/01/15 06:52:20;;;;;;;;;;;;;;;;;;2101811;28;19924;-46
2022/01/15 06:53:21;;;;;;;;;;;;;;;;;;2105949;28;19927;-45
2022/01/15 06:54:22;;;;;;;;;;;;;;;;;;2106155;28;19927;-45
2022/01/15 06:55:23;;;;;;;;;;;;;;;;;;2105959;28;19948;-45
2022/01/15 06:56:24;;;;;;;;;;;;;;;;;;2114578;28;19964;-49
2022/01/15 06:57:24;;;;;;;;;;;;;;;;;;2113612;28;19965;-49
2022/01/15 06:58:25;;;;;;;;;;;;;;;;;;2107241;28;19926;-50
2022/01/15 06:59:26;;;;;;;;;;;;;;;;;;2110054;28;20007;-53
2022/01/15 07:00:27;;;;;;;;;;;;;;;;;;2105371;28;19920;-50
2022/01/15 07:01:28;;;;;;;;;;;;;;;;;;2110713;28;19973;-51
2022/01/15 07:02:30;;;;;;;;;;;;;;;;;;2107373;28;19927;-49
2022/01/15 07:03:31;;;;;;;;;;;;;;;;;;2105204;28;19921;-49
2022/01/15 07:04:31;;;;;;;;;;;;;;;;;;2100512;28;19970;-49
2022/01/15 07:05:32;;;;;;;;;;;;;;;;;;2099095;28;19944;-49
2022/01/15 07:06:33;;;;;;;;;;;;;;;;;;2102303;28;20262;-49
2022/01/15 07:07:34;;;;;;;;;;;;;;;;;;2099146;28;19942;-50
2022/01/15 07:08:35;;;;;;;;;;;;;;;;;;2098934;28;20300;-51
2022/01/15 07:09:36;;;;;;;;;;;;;;;;;;2107059;28;20353;-50
2022/01/15 07:10:39;;;;;;;;;;;;;;;;;;2115921;28;20346;-49
2022/01/15 07:11:40;;;;;;;;;;;;;;;;;;2113487;28;20002;-53